sensor_id;sensor_type;location;lat;lon;timestamp;P1;durP1;ratioP1;P2;durP2;ratioP2
63370;SDS011;49504;48.336;14.472;2022-08-21T03:01:40;5.28;;;3.08;;
63370;SDS011;49504;48.336;14.472;2022-08-21T03:06:47;5.43;;;3.53;;
63370;SDS011;49504;48.336;14.472;2022-08-21T03:11:48;4.53;;;3.00;;
63370;SDS011;49504;48.336;14.472;2022-08-21T03:16:51;6.57;;;3.90;;
63370;SDS011;49504;48.336;14.472;2022-08-21T03:21:52;4.40;;;3.15;;
63370;SDS011;49504;48.336;14.472;2022-08-21T03:26:53;5.35;;;3.70;;
63370;SDS011;49504;48.336;14.472;2022-08-21T03:31:55;5.10;;;3.20;;
63370;SDS011;49504;48.336;14.472;2022-08-21T03:36:56;4.70;;;3.00;;
63370;SDS011;49504;48.336;14.472;2022-08-21T03:41:57;5.53;;;3.10;;
63370;SDS011;49504;48.336;14.472;2022-08-21T03:46:59;5.30;;;3.10;;
63370;SDS011;49504;48.336;14.472;2022-08-21T03:52:01;6.13;;;3.28;;
63370;SDS011;49504;48.336;14.472;2022-08-21T03:57:03;4.45;;;2.72;;
63370;SDS011;49504;48.336;14.472;2022-08-21T04:02:06;5.20;;;3.55;;
63370;SDS011;49504;48.336;14.472;2022-08-21T04:07:07;5.07;;;3.20;;
63370;SDS011;49504;48.336;14.472;2022-08-21T04:12:08;4.60;;;3.13;;
63370;SDS011;49504;48.336;14.472;2022-08-21T04:17:11;5.68;;;3.35;;
63370;SDS011;49504;48.336;14.472;2022-08-21T04:22:12;4.63;;;3.22;;
63370;SDS011;49504;48.336;14.472;2022-08-21T04:27:13;5.10;;;3.25;;
63370;SDS011;49504;48.336;14.472;2022-08-21T04:32:20;5.10;;;3.30;;
63370;SDS011;49504;48.336;14.472;2022-08-21T04:37:22;6.18;;;2.92;;
63370;SDS011;49504;48.336;14.472;2022-08-21T04:42:23;6.07;;;3.10;;
63370;SDS011;49504;48.336;14.472;2022-08-21T04:47:29;5.63;;;3.08;;
63370;SDS011;49504;48.336;14.472;2022-08-21T04:52:32;4.77;;;2.97;;
63370;SDS011;49504;48.336;14.472;2022-08-21T04:57:33;5.30;;;3.45;;
63370;SDS011;49504;48.336;14.472;2022-08-21T05:02:36;4.90;;;2.97;;
63370;SDS011;49504;48.336;14.472;2022-08-21T05:07:38;6.88;;;3.13;;
63370;SDS011;49504;48.336;14.472;2022-08-21T05:12:40;4.70;;;3.40;;
63370;SDS011;49504;48.336;14.472;2022-08-21T05:17:43;4.72;;;2.92;;
63370;SDS011;49504;48.336;14.472;2022-08-21T05:22:44;4.35;;;2.70;;
63370;SDS011;49504;48.336;14.472;2022-08-21T05:27:46;4.90;;;2.95;;
63370;SDS011;49504;48.336;14.472;2022-08-21T05:32:48;4.75;;;2.88;;
63370;SDS011;49504;48.336;14.472;2022-08-21T05:37:49;4.78;;;2.75;;
63370;SDS011;49504;48.336;14.472;2022-08-21T05:42:50;5.53;;;3.17;;
63370;SDS011;49504;48.336;14.472;2022-08-21T05:47:54;4.38;;;2.80;;
63370;SDS011;49504;48.336;14.472;2022-08-21T05:52:55;5.80;;;2.97;;
63370;SDS011;49504;48.336;14.472;2022-08-21T07:17:01;5.15;;;3.30;;
63370;SDS011;49504;48.336;14.472;2022-08-21T07:22:02;4.70;;;3.28;;
63370;SDS011;49504;48.336;14.472;2022-08-21T07:27:04;5.05;;;3.30;;
63370;SDS011;49504;48.336;14.472;2022-08-21T07:32:07;5.35;;;3.33;;
63370;SDS011;49504;48.336;14.472;2022-08-21T07:41:45;5.05;;;3.60;;
63370;SDS011;49504;48.336;14.472;2022-08-21T07:49:30;4.95;;;3.50;;
63370;SDS011;49504;48.336;14.472;2022-08-21T07:54:31;5.55;;;3.53;;
63370;SDS011;49504;48.336;14.472;2022-08-21T07:59:32;5.75;;;3.53;;
63370;SDS011;49504;48.336;14.472;2022-08-21T08:04:35;5.18;;;3.50;;
63370;SDS011;49504;48.336;14.472;2022-08-21T08:09:39;6.63;;;3.80;;
63370;SDS011;49504;48.336;14.472;2022-08-21T08:20:29;5.20;;;3.60;;
63370;SDS011;49504;48.336;14.472;2022-08-21T08:27:15;5.60;;;3.70;;
63370;SDS011;49504;48.336;14.472;2022-08-21T08:32:17;5.68;;;3.70;;
63370;SDS011;49504;48.336;14.472;2022-08-21T08:37:19;5.47;;;3.58;;
63370;SDS011;49504;48.336;14.472;2022-08-21T08:43:07;5.00;;;3.60;;
63370;SDS011;49504;48.336;14.472;2022-08-21T08:48:08;5.72;;;3.47;;
63370;SDS011;49504;48.336;14.472;2022-08-21T08:53:15;5.28;;;3.70;;
63370;SDS011;49504;48.336;14.472;2022-08-21T08:58:24;5.55;;;3.92;;
63370;SDS011;49504;48.336;14.472;2022-08-21T09:03:29;5.65;;;3.65;;
63370;SDS011;49504;48.336;14.472;2022-08-21T09:10:41;5.53;;;3.75;;
63370;SDS011;49504;48.336;14.472;2022-08-21T09:22:31;5.53;;;3.63;;
63370;SDS011;49504;48.336;14.472;2022-08-21T09:27:40;5.03;;;3.28;;
63370;SDS011;49504;48.336;14.472;2022-08-21T09:32:41;5.70;;;3.70;;
63370;SDS011;49504;48.336;14.472;2022-08-21T09:37:48;5.40;;;3.40;;
63370;SDS011;49504;48.336;14.472;2022-08-21T09:42:54;6.25;;;3.95;;
63370;SDS011;49504;48.336;14.472;2022-08-21T09:48:07;5.72;;;3.60;;
63370;SDS011;49504;48.336;14.472;2022-08-21T09:53:16;4.95;;;3.75;;
63370;SDS011;49504;48.336;14.472;2022-08-21T09:58:20;5.25;;;3.65;;
63370;SDS011;49504;48.336;14.472;2022-08-21T10:03:31;5.82;;;3.60;;
63370;SDS011;49504;48.336;14.472;2022-08-21T10:08:35;5.43;;;3.67;;
63370;SDS011;49504;48.336;14.472;2022-08-21T10:13:44;6.13;;;3.45;;
63370;SDS011;49504;48.336;14.472;2022-08-21T10:19:09;5.60;;;3.35;;
63370;SDS011;49504;48.336;14.472;2022-08-21T10:24:22;5.70;;;3.28;;
63370;SDS011;49504;48.336;14.472;2022-08-21T10:34:44;5.25;;;3.17;;
63370;SDS011;49504;48.336;14.472;2022-08-21T10:39:56;5.18;;;2.72;;
63370;SDS011;49504;48.336;14.472;2022-08-21T10:45:15;5.13;;;2.75;;
63370;SDS011;49504;48.336;14.472;2022-08-21T10:50:36;4.63;;;2.75;;
63370;SDS011;49504;48.336;14.472;2022-08-21T10:55:48;4.20;;;2.30;;
63370;SDS011;49504;48.336;14.472;2022-08-21T11:07:18;4.60;;;2.25;;
63370;SDS011;49504;48.336;14.472;2022-08-21T11:14:37;5.57;;;2.47;;
63370;SDS011;49504;48.336;14.472;2022-08-21T11:19:58;3.85;;;1.95;;
63370;SDS011;49504;48.336;14.472;2022-08-21T11:25:17;4.38;;;2.28;;
63370;SDS011;49504;48.336;14.472;2022-08-21T11:30:29;3.70;;;1.92;;
63370;SDS011;49504;48.336;14.472;2022-08-21T11:35:46;3.78;;;2.42;;
63370;SDS011;49504;48.336;14.472;2022-08-21T11:41:02;3.83;;;2.10;;
63370;SDS011;49504;48.336;14.472;2022-08-21T11:46:34;4.40;;;1.98;;
63370;SDS011;49504;48.336;14.472;2022-08-21T11:51:54;3.78;;;1.90;;
63370;SDS011;49504;48.336;14.472;2022-08-21T11:57:07;4.00;;;2.20;;
63370;SDS011;49504;48.336;14.472;2022-08-21T12:02:21;3.95;;;1.90;;
63370;SDS011;49504;48.336;14.472;2022-08-21T12:07:30;2.92;;;1.52;;
63370;SDS011;49504;48.336;14.472;2022-08-21T12:12:35;3.83;;;1.90;;
63370;SDS011;49504;48.336;14.472;2022-08-21T12:17:50;4.10;;;1.92;;
63370;SDS011;49504;48.336;14.472;2022-08-21T12:22:55;3.30;;;1.63;;
63370;SDS011;49504;48.336;14.472;2022-08-21T12:28:07;3.30;;;1.52;;
63370;SDS011;49504;48.336;14.472;2022-08-21T12:33:22;3.60;;;1.70;;
63370;SDS011;49504;48.336;14.472;2022-08-21T12:38:29;3.85;;;1.50;;
63370;SDS011;49504;48.336;14.472;2022-08-21T12:43:42;3.47;;;1.50;;
63370;SDS011;49504;48.336;14.472;2022-08-21T12:48:51;3.55;;;1.73;;
63370;SDS011;49504;48.336;14.472;2022-08-21T12:53:56;3.65;;;1.60;;
63370;SDS011;49504;48.336;14.472;2022-08-21T13:00:58;4.88;;;1.50;;
63370;SDS011;49504;48.336;14.472;2022-08-21T13:06:04;4.55;;;1.80;;
63370;SDS011;49504;48.336;14.472;2022-08-21T13:11:07;3.17;;;1.15;;
63370;SDS011;49504;48.336;14.472;2022-08-21T13:16:11;3.53;;;1.63;;
63370;SDS011;49504;48.336;14.472;2022-08-21T13:21:20;3.53;;;1.67;;
63370;SDS011;49504;48.336;14.472;2022-08-21T13:26:21;3.25;;;1.42;;
63370;SDS011;49504;48.336;14.472;2022-08-21T13:31:24;4.65;;;1.38;;
63370;SDS011;49504;48.336;14.472;2022-08-21T13:38:20;2.88;;;1.40;;
63370;SDS011;49504;48.336;14.472;2022-08-21T13:47:32;3.58;;;1.77;;
63370;SDS011;49504;48.336;14.472;2022-08-21T13:52:33;3.80;;;1.80;;
63370;SDS011;49504;48.336;14.472;2022-08-21T14:01:56;4.00;;;1.70;;
63370;SDS011;49504;48.336;14.472;2022-08-21T14:06:59;4.47;;;1.95;;
63370;SDS011;49504;48.336;14.472;2022-08-21T14:12:02;3.60;;;1.63;;
63370;SDS011;49504;48.336;14.472;2022-08-21T14:17:29;3.80;;;1.80;;
63370;SDS011;49504;48.336;14.472;2022-08-21T14:22:36;4.13;;;1.80;;
63370;SDS011;49504;48.336;14.472;2022-08-21T14:27:40;5.03;;;1.88;;
63370;SDS011;49504;48.336;14.472;2022-08-21T14:32:50;7.55;;;2.88;;
63370;SDS011;49504;48.336;14.472;2022-08-21T14:37:51;5.97;;;2.40;;
63370;SDS011;49504;48.336;14.472;2022-08-21T14:42:53;5.00;;;2.58;;
63370;SDS011;49504;48.336;14.472;2022-08-21T14:47:56;5.18;;;2.60;;
63370;SDS011;49504;48.336;14.472;2022-08-21T14:52:58;5.80;;;3.00;;
63370;SDS011;49504;48.336;14.472;2022-08-21T14:57:59;6.28;;;3.10;;
63370;SDS011;49504;48.336;14.472;2022-08-21T15:03:03;5.32;;;2.80;;
63370;SDS011;49504;48.336;14.472;2022-08-21T15:08:04;6.55;;;3.22;;
63370;SDS011;49504;48.336;14.472;2022-08-21T15:22:29;6.68;;;3.03;;
63370;SDS011;49504;48.336;14.472;2022-08-21T15:27:30;6.63;;;3.45;;
63370;SDS011;49504;48.336;14.472;2022-08-21T15:32:31;4.82;;;2.90;;
63370;SDS011;49504;48.336;14.472;2022-08-21T15:37:33;5.07;;;2.97;;
63370;SDS011;49504;48.336;14.472;2022-08-21T15:42:34;4.82;;;2.35;;
63370;SDS011;49504;48.336;14.472;2022-08-21T15:47:38;5.53;;;2.55;;
63370;SDS011;49504;48.336;14.472;2022-08-21T15:53:01;5.65;;;2.70;;
63370;SDS011;49504;48.336;14.472;2022-08-21T15:58:02;4.82;;;2.88;;
63370;SDS011;49504;48.336;14.472;2022-08-21T16:03:05;4.95;;;3.05;;
63370;SDS011;49504;48.336;14.472;2022-08-21T16:08:08;4.32;;;2.20;;
63370;SDS011;49504;48.336;14.472;2022-08-21T16:13:11;4.93;;;3.00;;
63370;SDS011;49504;48.336;14.472;2022-08-21T16:18:20;6.40;;;3.65;;
63370;SDS011;49504;48.336;14.472;2022-08-21T16:23:23;5.80;;;3.45;;
63370;SDS011;49504;48.336;14.472;2022-08-21T16:28:24;5.35;;;3.20;;
63370;SDS011;49504;48.336;14.472;2022-08-21T16:33:26;4.93;;;2.78;;
63370;SDS011;49504;48.336;14.472;2022-08-21T16:38:33;4.55;;;2.83;;
63370;SDS011;49504;48.336;14.472;2022-08-21T16:43:35;4.90;;;2.80;;
63370;SDS011;49504;48.336;14.472;2022-08-21T16:48:39;5.13;;;3.03;;
63370;SDS011;49504;48.336;14.472;2022-08-21T16:53:42;5.70;;;3.08;;
63370;SDS011;49504;48.336;14.472;2022-08-21T16:58:44;5.55;;;2.80;;
63370;SDS011;49504;48.336;14.472;2022-08-21T17:04:44;3.90;;;2.40;;
63370;SDS011;49504;48.336;14.472;2022-08-21T17:09:45;4.18;;;2.53;;
63370;SDS011;49504;48.336;14.472;2022-08-21T17:14:46;4.95;;;2.67;;
63370;SDS011;49504;48.336;14.472;2022-08-21T17:19:49;5.80;;;3.40;;
63370;SDS011;49504;48.336;14.472;2022-08-21T17:24:50;4.40;;;2.53;;
63370;SDS011;49504;48.336;14.472;2022-08-21T17:29:51;6.22;;;3.00;;
63370;SDS011;49504;48.336;14.472;2022-08-21T17:34:53;5.05;;;3.33;;
63370;SDS011;49504;48.336;14.472;2022-08-21T17:39:54;6.60;;;2.88;;
63370;SDS011;49504;48.336;14.472;2022-08-21T17:48:54;4.57;;;2.47;;
63370;SDS011;49504;48.336;14.472;2022-08-21T17:53:56;5.53;;;3.05;;
63370;SDS011;49504;48.336;14.472;2022-08-21T17:58:57;4.88;;;2.40;;
63370;SDS011;49504;48.336;14.472;2022-08-21T18:04:00;5.05;;;2.38;;
63370;SDS011;49504;48.336;14.472;2022-08-21T18:17:38;5.22;;;2.75;;
63370;SDS011;49504;48.336;14.472;2022-08-21T18:22:41;5.65;;;2.28;;
63370;SDS011;49504;48.336;14.472;2022-08-21T18:27:43;5.50;;;2.50;;
63370;SDS011;49504;48.336;14.472;2022-08-21T18:32:46;4.85;;;2.58;;
63370;SDS011;49504;48.336;14.472;2022-08-21T18:37:48;4.93;;;2.75;;
63370;SDS011;49504;48.336;14.472;2022-08-21T18:42:49;4.97;;;2.70;;
63370;SDS011;49504;48.336;14.472;2022-08-21T18:47:53;5.35;;;3.10;;
63370;SDS011;49504;48.336;14.472;2022-08-21T18:52:56;4.85;;;2.60;;
63370;SDS011;49504;48.336;14.472;2022-08-21T18:57:58;4.97;;;2.83;;
63370;SDS011;49504;48.336;14.472;2022-08-21T19:07:46;4.75;;;2.67;;
63370;SDS011;49504;48.336;14.472;2022-08-21T19:12:47;4.82;;;3.00;;
63370;SDS011;49504;48.336;14.472;2022-08-21T19:22:30;5.63;;;2.95;;
63370;SDS011;49504;48.336;14.472;2022-08-21T19:27:34;5.18;;;3.20;;
63370;SDS011;49504;48.336;14.472;2022-08-21T19:32:36;5.07;;;3.00;;
63370;SDS011;49504;48.336;14.472;2022-08-21T19:37:43;4.90;;;2.83;;
63370;SDS011;49504;48.336;14.472;2022-08-21T19:42:44;4.63;;;2.55;;
63370;SDS011;49504;48.336;14.472;2022-08-21T19:47:54;5.07;;;2.80;;
63370;SDS011;49504;48.336;14.472;2022-08-21T19:58:43;5.38;;;3.17;;
63370;SDS011;49504;48.336;14.472;2022-08-21T20:03:45;4.50;;;2.70;;
63370;SDS011;49504;48.336;14.472;2022-08-21T20:13:06;4.95;;;2.80;;
63370;SDS011;49504;48.336;14.472;2022-08-21T20:18:07;6.88;;;2.92;;
63370;SDS011;49504;48.336;14.472;2022-08-21T20:27:30;4.80;;;2.83;;
63370;SDS011;49504;48.336;14.472;2022-08-21T20:32:31;4.72;;;3.03;;
63370;SDS011;49504;48.336;14.472;2022-08-21T20:37:32;4.93;;;2.50;;
63370;SDS011;49504;48.336;14.472;2022-08-21T20:42:35;4.78;;;2.28;;
63370;SDS011;49504;48.336;14.472;2022-08-21T20:47:36;4.43;;;2.83;;
63370;SDS011;49504;48.336;14.472;2022-08-21T20:52:37;5.28;;;2.80;;
63370;SDS011;49504;48.336;14.472;2022-08-21T20:57:43;4.18;;;2.70;;
63370;SDS011;49504;48.336;14.472;2022-08-21T21:02:49;6.28;;;2.80;;
63370;SDS011;49504;48.336;14.472;2022-08-21T21:07:59;5.22;;;3.13;;
63370;SDS011;49504;48.336;14.472;2022-08-21T21:13:07;4.88;;;2.58;;
63370;SDS011;49504;48.336;14.472;2022-08-21T21:18:16;4.47;;;2.80;;
63370;SDS011;49504;48.336;14.472;2022-08-21T21:23:31;4.90;;;2.63;;
63370;SDS011;49504;48.336;14.472;2022-08-21T21:28:43;5.53;;;3.22;;
63370;SDS011;49504;48.336;14.472;2022-08-21T21:33:48;4.97;;;2.80;;
63370;SDS011;49504;48.336;14.472;2022-08-21T21:38:50;4.30;;;2.70;;
63370;SDS011;49504;48.336;14.472;2022-08-21T21:44:05;4.90;;;2.78;;
63370;SDS011;49504;48.336;14.472;2022-08-21T21:54:52;5.47;;;2.95;;
63370;SDS011;49504;48.336;14.472;2022-08-21T22:00:20;4.75;;;2.85;;
63370;SDS011;49504;48.336;14.472;2022-08-21T22:05:32;4.70;;;2.80;;
63370;SDS011;49504;48.336;14.472;2022-08-21T22:10:49;4.57;;;2.58;;
63370;SDS011;49504;48.336;14.472;2022-08-21T22:15:57;5.45;;;3.20;;
63370;SDS011;49504;48.336;14.472;2022-08-21T22:21:01;4.70;;;2.55;;
63370;SDS011;49504;48.336;14.472;2022-08-21T22:31:15;5.78;;;3.30;;
63370;SDS011;49504;48.336;14.472;2022-08-21T22:36:47;5.35;;;2.92;;
63370;SDS011;49504;48.336;14.472;2022-08-21T22:41:58;4.22;;;2.70;;
63370;SDS011;49504;48.336;14.472;2022-08-21T22:47:06;4.82;;;2.33;;
63370;SDS011;49504;48.336;14.472;2022-08-21T22:52:10;3.83;;;2.33;;
63370;SDS011;49504;48.336;14.472;2022-08-21T22:57:21;4.70;;;2.72;;
63370;SDS011;49504;48.336;14.472;2022-08-21T23:02:28;4.22;;;2.45;;
63370;SDS011;49504;48.336;14.472;2022-08-21T23:07:39;4.25;;;2.35;;
63370;SDS011;49504;48.336;14.472;2022-08-21T23:16:00;4.32;;;2.38;;
63370;SDS011;49504;48.336;14.472;2022-08-21T23:21:15;3.92;;;2.42;;
63370;SDS011;49504;48.336;14.472;2022-08-21T23:26:27;4.95;;;2.80;;
63370;SDS011;49504;48.336;14.472;2022-08-21T23:31:42;3.70;;;2.13;;
63370;SDS011;49504;48.336;14.472;2022-08-21T23:42:05;3.70;;;2.08;;
63370;SDS011;49504;48.336;14.472;2022-08-21T23:49:17;4.30;;;2.70;;
63370;SDS011;49504;48.336;14.472;2022-08-21T23:56:40;4.10;;;2.40;;
